Besiktas Bosphorus — TCOG3 — position and weather

sailwx.info

Track history (hours):
 
Tides and Currents Weather Stations Pressure Air Temp Water Temp Dewpoint Dewpoint Depression Visibility Wind Speed Wind Dir Waves Ship Positions

Besiktas Bosphorus

Last reported at 2017-Mar-23 01:32 UTC. Time now 2017-Mar-23 02:18 UTC.
Position N 28°08' W 015°23'.

Length 274 m; draft 8.8 m.

Type: Ship (hazmat cat A). MMSI: 271000817.

Date/timePositionNaut miles runAvg speedWind from/ knotsBaromVisibWave heightAir tempDewpointWater temp
2017-Mar-23 01:32N 28°08' W 015°23'0 0.0
2017-Mar-23 00:32N 28°08' W 015°24'0 0.1
2017-Mar-22 23:32N 28°08' W 015°24'0 0.0
2017-Mar-22 22:32N 28°08' W 015°24'0 0.0
2017-Mar-22 21:32N 28°08' W 015°24'0 0.1
2017-Mar-22 20:32N 28°08' W 015°24'0 0.0
2017-Mar-22 19:20N 28°08' W 015°24'0 0.1
2017-Mar-22 18:26N 28°08' W 015°24'0 0.0
2017-Mar-22 17:26N 28°08' W 015°23'0 0.0
2017-Mar-22 16:25N 28°08' W 015°23'0 0.0
2017-Mar-22 15:28N 28°08' W 015°23'0 0.0
2017-Mar-22 14:28N 28°08' W 015°24'0 0.0
2017-Mar-22 13:31N 28°08' W 015°24'0 0.0
2017-Mar-22 12:31N 28°08' W 015°24'0 0.0
2017-Mar-22 11:31N 28°08' W 015°24'0 0.0
2017-Mar-22 10:31N 28°08' W 015°24'0 0.0
2017-Mar-22 09:31N 28°08' W 015°24'0 0.1
2017-Mar-22 08:31N 28°08' W 015°23'0 0.1
2017-Mar-22 07:33N 28°08' W 015°23'5 4.7
2017-Mar-22 06:33N 28°08' W 015°18'8 8.1
2017-Mar-22 05:33N 28°09' W 015°09'9 8.9
2017-Mar-22 04:33N 28°11' W 014°59'1211.7
2017-Mar-22 03:33N 28°22' W 014°54'1312.8
2017-Mar-22 02:33N 28°33' W 014°47'1312.8
2017-Mar-22 01:32N 28°44' W 014°39'1312.9
2017-Mar-22 00:33N 28°55' W 014°32'41 5.0
2017-Mar-21 16:23N 29°29' W 014°04'6 6.9
2017-Mar-21 15:27N 29°34' W 014°00'8 7.4
2017-Mar-21 14:24N 29°41' W 013°55'49012.8
2017-Mar-20 00:14N 35°23' W 006°60'7112.4
2017-Mar-19 18:27N 35°58' W 005°43'1112.2
2017-Mar-19 17:33N 35°60' W 005°30'1111.1
2017-Mar-19 16:33N 36°05' W 005°18'3 2.9
2017-Mar-19 15:33N 36°07' W 005°15'4 3.5
2017-Mar-19 14:33N 36°08' W 005°11'9 8.8
2017-Mar-19 13:33N 36°08' W 005°00'11 9.0
2017-Mar-19 12:22N 36°11' W 004°48'16110.0
2017-Mar-18 20:19N 36°32' W 001°29'2212.6
2017-Mar-18 18:33N 36°37' W 001°02'1312.9
2017-Mar-18 17:33N 36°38' W 000°46'1312.7
2017-Mar-18 16:33N 36°40' W 000°31'1312.5
2017-Mar-18 15:33N 36°43' W 000°16'1212.5
2017-Mar-18 14:34N 36°45' W 000°00'1212.4
2017-Mar-18 13:33N 36°47' E 000°15'1312.8
2017-Mar-18 12:33N 36°50' E 000°31'1812.4
2017-Mar-18 11:08N 36°53' E 000°52'712.7
2017-Mar-18 10:33N 36°55' E 001°01'4112.0
2017-Mar-18 07:07N 37°01' E 001°52'3212.0
2017-Mar-18 04:27N 37°07' E 002°31'3812.9
2017-Mar-18 01:33N 37°14' E 003°18'1212.0
2017-Mar-18 00:33N 37°15' E 003°32'1111.2
2017-Mar-17 23:33N 37°17' E 003°46'2211.1
2017-Mar-17 21:33N 37°21' E 004°14'5011.7
2017-Mar-17 17:20N 37°25' E 005°16'  
2017-Mar-13 14:33N 38°36' E 008°41'  
Track history (hours):
 
Tides and Currents Weather Stations Pressure Air Temp Water Temp Dewpoint Dewpoint Depression Visibility Wind Speed Wind Dir Waves Ship Positions

Besiktas Bosphorus

Last reported at 2017-Mar-23 01:32 UTC. Time now 2017-Mar-23 02:18 UTC.
Position N 28°08' W 015°23'.

Length 274 m; draft 8.8 m.

Type: Ship (hazmat cat A). MMSI: 271000817.

Date/timePositionNaut miles runAvg speedWind from/ knotsBaromVisibWave heightAir tempDewpointWater temp
2017-Mar-23 01:32N 28°08' W 015°23'0 0.0
2017-Mar-23 00:32N 28°08' W 015°24'0 0.1
2017-Mar-22 23:32N 28°08' W 015°24'0 0.0
2017-Mar-22 22:32N 28°08' W 015°24'0 0.0
2017-Mar-22 21:32N 28°08' W 015°24'0 0.1
2017-Mar-22 20:32N 28°08' W 015°24'0 0.0
2017-Mar-22 19:20N 28°08' W 015°24'0 0.1
2017-Mar-22 18:26N 28°08' W 015°24'0 0.0
2017-Mar-22 17:26N 28°08' W 015°23'0 0.0
2017-Mar-22 16:25N 28°08' W 015°23'0 0.0
2017-Mar-22 15:28N 28°08' W 015°23'0 0.0
2017-Mar-22 14:28N 28°08' W 015°24'0 0.0
2017-Mar-22 13:31N 28°08' W 015°24'0 0.0
2017-Mar-22 12:31N 28°08' W 015°24'0 0.0
2017-Mar-22 11:31N 28°08' W 015°24'0 0.0
2017-Mar-22 10:31N 28°08' W 015°24'0 0.0
2017-Mar-22 09:31N 28°08' W 015°24'0 0.1
2017-Mar-22 08:31N 28°08' W 015°23'0 0.1
2017-Mar-22 07:33N 28°08' W 015°23'5 4.7
2017-Mar-22 06:33N 28°08' W 015°18'8 8.1
2017-Mar-22 05:33N 28°09' W 015°09'9 8.9
2017-Mar-22 04:33N 28°11' W 014°59'1211.7
2017-Mar-22 03:33N 28°22' W 014°54'1312.8
2017-Mar-22 02:33N 28°33' W 014°47'1312.8
2017-Mar-22 01:32N 28°44' W 014°39'1312.9
2017-Mar-22 00:33N 28°55' W 014°32'41 5.0
2017-Mar-21 16:23N 29°29' W 014°04'6 6.9
2017-Mar-21 15:27N 29°34' W 014°00'8 7.4
2017-Mar-21 14:24N 29°41' W 013°55'49012.8
2017-Mar-20 00:14N 35°23' W 006°60'7112.4
2017-Mar-19 18:27N 35°58' W 005°43'1112.2
2017-Mar-19 17:33N 35°60' W 005°30'1111.1
2017-Mar-19 16:33N 36°05' W 005°18'3 2.9
2017-Mar-19 15:33N 36°07' W 005°15'4 3.5
2017-Mar-19 14:33N 36°08' W 005°11'9 8.8
2017-Mar-19 13:33N 36°08' W 005°00'11 9.0
2017-Mar-19 12:22N 36°11' W 004°48'16110.0
2017-Mar-18 20:19N 36°32' W 001°29'2212.6
2017-Mar-18 18:33N 36°37' W 001°02'1312.9
2017-Mar-18 17:33N 36°38' W 000°46'1312.7
2017-Mar-18 16:33N 36°40' W 000°31'1312.5
2017-Mar-18 15:33N 36°43' W 000°16'1212.5
2017-Mar-18 14:34N 36°45' W 000°00'1212.4
2017-Mar-18 13:33N 36°47' E 000°15'1312.8
2017-Mar-18 12:33N 36°50' E 000°31'1812.4
2017-Mar-18 11:08N 36°53' E 000°52'712.7
2017-Mar-18 10:33N 36°55' E 001°01'4112.0
2017-Mar-18 07:07N 37°01' E 001°52'3212.0
2017-Mar-18 04:27N 37°07' E 002°31'3812.9
2017-Mar-18 01:33N 37°14' E 003°18'1212.0
2017-Mar-18 00:33N 37°15' E 003°32'1111.2
2017-Mar-17 23:33N 37°17' E 003°46'2211.1
2017-Mar-17 21:33N 37°21' E 004°14'5011.7
2017-Mar-17 17:20N 37°25' E 005°16'  
2017-Mar-13 14:33N 38°36' E 008°41'  

Dump ship's entire track history